Time;durP1;ratioP1;P1;durP2;ratioP2;P2;SDS_P1;SDS_P2;PMS_P1;PMS_P2;Temp;Humidity;BMP_temperature;BMP_pressure;BME280_temperature;BME280_humidity;BME280_pressure;Samples;Min_cycle;Max_cycle;Signal;HPM_P1;HPM_P2
2022/10/15 00:00:00;;;;;;;0.13;0.13;;;;;;;15.32;100.00;98006.47;4905786;29;20272;-65
2022/10/15 00:02:27;;;;;;;0.20;0.20;;;;;;;15.37;100.00;97997.19;4905161;29;20263;-65
2022/10/15 00:04:53;;;;;;;0.10;0.10;;;;;;;15.36;100.00;98012.13;4907703;29;20268;-65
2022/10/15 00:07:20;;;;;;;1.50;0.13;;;;;;;15.38;100.00;98010.13;4904597;29;20294;-65
2022/10/15 00:09:47;;;;;;;0.20;0.20;;;;;;;15.31;100.00;98010.13;4907441;29;20236;-65
2022/10/15 00:12:13;;;;;;;0.20;0.20;;;;;;;15.30;100.00;98012.94;4905662;29;20246;-65
2022/10/15 00:14:40;;;;;;;0.60;0.20;;;;;;;15.25;100.00;98005.66;4907899;29;20229;-65
2022/10/15 00:17:08;;;;;;;3.47;0.60;;;;;;;15.25;100.00;98012.69;4904585;29;20278;-65
2022/10/15 00:19:34;;;;;;;1.30;0.20;;;;;;;15.20;100.00;98014.09;4907319;29;20236;-65
2022/10/15 00:22:01;;;;;;;0.40;0.20;;;;;;;15.17;100.00;98017.13;4907711;29;20240;-64
2022/10/15 00:24:28;;;;;;;2.10;0.20;;;;;;;15.17;100.00;98019.75;4908275;29;20252;-64
2022/10/15 00:26:54;;;;;;;0.53;0.30;;;;;;;15.19;100.00;98014.31;4911403;29;20650;-64
2022/10/15 00:29:21;;;;;;;0.90;0.30;;;;;;;15.20;100.00;98010.69;4922484;29;20246;-64
2022/10/15 00:31:50;;;;;;;1.23;0.27;;;;;;;15.19;100.00;98030.88;4909772;29;20239;-64
2022/10/15 00:34:18;;;;;;;1.80;0.30;;;;;;;15.25;100.00;98020.59;4907237;29;20239;-65
2022/10/15 00:36:45;;;;;;;1.87;0.20;;;;;;;15.20;100.00;98016.72;4909507;29;20252;-65
2022/10/15 00:39:11;;;;;;;0.87;0.20;;;;;;;15.22;100.00;98028.88;4906394;29;20313;-64
2022/10/15 00:41:41;;;;;;;0.93;0.20;;;;;;;15.23;100.00;98014.72;4909957;29;20794;-64
2022/10/15 00:44:45;;;;;;;1.53;0.20;;;;;;;15.19;100.00;98001.16;4907036;29;20234;-64
2022/10/15 00:47:16;;;;;;;0.20;0.20;;;;;;;15.20;100.00;98015.94;4899605;29;20240;-64
2022/10/15 00:49:55;;;;;;;0.60;0.20;;;;;;;15.26;100.00;98009.88;4909605;29;20796;-64
2022/10/15 00:52:29;;;;;;;0.60;0.20;;;;;;;15.29;100.00;98006.88;4906163;29;20239;-64
2022/10/15 00:55:03;;;;;;;0.30;0.20;;;;;;;15.31;100.00;98022.44;4910072;29;20709;-64
2022/10/15 00:57:32;;;;;;;0.20;0.10;;;;;;;15.30;100.00;98021.63;4906219;29;20242;-64
2022/10/15 01:00:03;;;;;;;1.40;0.10;;;;;;;15.31;100.00;98025.91;4909393;29;20246;-64
2022/10/15 01:02:31;;;;;;;0.83;0.50;;;;;;;15.30;100.00;98020.81;4907076;29;20308;-64
2022/10/15 01:04:59;;;;;;;0.40;0.10;;;;;;;15.31;100.00;98028.53;4911167;29;20243;-64
2022/10/15 01:07:26;;;;;;;0.10;0.10;;;;;;;15.32;100.00;98027.50;4907820;29;20260;-64
2022/10/15 01:09:52;;;;;;;0.17;0.10;;;;;;;15.35;100.00;98029.75;4909070;29;20243;-64
2022/10/15 01:12:26;;;;;;;0.47;0.10;;;;;;;15.38;100.00;98028.53;4904760;29;20279;-64
2022/10/15 01:15:02;;;;;;;0.70;0.20;;;;;;;15.36;100.00;98014.78;4911040;29;20229;-65
2022/10/15 01:17:39;;;;;;;0.20;0.10;;;;;;;15.32;100.00;98024.06;4907007;29;20240;-65
2022/10/15 01:20:26;;;;;;;1.23;0.20;;;;;;;15.32;100.00;98027.50;4900307;29;20252;-65
2022/10/15 01:23:14;;;;;;;0.83;0.23;;;;;;;15.36;100.00;98014.78;4907193;29;20238;-64
2022/10/15 01:25:53;;;;;;;1.27;0.10;;;;;;;15.37;100.00;98031.38;4906741;29;21019;-64
2022/10/15 01:28:28;;;;;;;0.30;0.20;;;;;;;15.34;100.00;98017.63;4905918;29;20373;-64
2022/10/15 01:30:59;;;;;;;0.20;0.10;;;;;;;15.34;100.00;98014.16;4896268;29;20254;-64
2022/10/15 01:33:36;;;;;;;2.17;0.10;;;;;;;15.34;100.00;98022.03;4920411;29;20243;-64
2022/10/15 01:36:12;;;;;;;0.33;0.20;;;;;;;15.33;100.00;98015.16;4908517;29;20246;-64
2022/10/15 01:38:48;;;;;;;1.57;0.30;;;;;;;15.29;100.00;98013.94;4906175;29;20303;-65
2022/10/15 01:41:22;;;;;;;0.10;0.10;;;;;;;15.31;100.00;98004.03;4905592;29;20636;-65
2022/10/15 01:43:59;;;;;;;0.20;0.20;;;;;;;15.33;100.00;98025.69;4924326;29;20243;-65
2022/10/15 01:47:02;;;;;;;1.60;0.20;;;;;;;15.37;100.00;98026.13;4895189;29;20319;-65
2022/10/15 01:49:32;;;;;;;0.50;0.20;;;;;;;15.39;100.00;98011.75;4905577;29;20236;-64
2022/10/15 01:52:08;;;;;;;0.90;0.20;;;;;;;15.44;100.00;98004.06;4891987;29;20231;-64
2022/10/15 01:54:36;;;;;;;0.20;0.20;;;;;;;15.42;100.00;98032.41;4905583;29;20243;-64
2022/10/15 01:57:05;;;;;;;0.67;0.10;;;;;;;15.35;100.00;98026.28;4908357;29;20239;-65
2022/10/15 01:59:34;;;;;;;0.23;0.20;;;;;;;15.32;100.00;98024.88;4905940;29;20258;-65
2022/10/15 02:02:02;;;;;;;1.40;0.20;;;;;;;15.29;100.00;98025.28;4908091;29;20250;-64
2022/10/15 02:04:30;;;;;;;3.40;0.27;;;;;;;15.27;100.00;98027.28;4905834;29;20290;-65
2022/10/15 02:07:02;;;;;;;1.37;0.20;;;;;;;15.25;100.00;98034.56;4905987;29;20238;-65
2022/10/15 02:09:38;;;;;;;1.60;0.33;;;;;;;15.26;100.00;98035.34;4905399;29;20291;-64
2022/10/15 02:12:16;;;;;;;1.03;0.20;;;;;;;15.26;100.00;98020.41;4908273;29;20235;-64
2022/10/15 02:14:53;;;;;;;1.23;0.20;;;;;;;15.24;100.00;98053.16;4905545;29;20261;-64
2022/10/15 02:17:28;;;;;;;0.57;0.20;;;;;;;15.22;100.00;98050.72;4905742;29;20232;-64
2022/10/15 02:19:59;;;;;;;0.17;0.17;;;;;;;15.20;100.00;98055.38;4923862;29;20255;-64
2022/10/15 02:22:33;;;;;;;0.40;0.20;;;;;;;15.16;100.00;98049.66;4905366;29;20341;-64
2022/10/15 02:25:05;;;;;;;1.70;0.27;;;;;;;15.13;100.00;98073.72;4909709;29;20239;-64
2022/10/15 02:27:33;;;;;;;0.50;0.20;;;;;;;15.09;100.00;98061.97;4905697;29;20670;-64
2022/10/15 02:30:02;;;;;;;0.10;0.10;;;;;;;15.07;100.00;98050.84;4908482;29;20330;-64
2022/10/15 02:32:32;;;;;;;0.20;0.20;;;;;;;15.07;100.00;98065.81;4907160;29;20247;-64
2022/10/15 02:35:00;;;;;;;1.37;0.13;;;;;;;15.05;100.00;98053.66;4907924;29;20236;-64
2022/10/15 02:37:29;;;;;;;0.17;0.10;;;;;;;15.06;100.00;98057.09;4906510;29;20333;-64
2022/10/15 02:39:56;;;;;;;0.27;0.23;;;;;;;15.09;100.00;98063.81;4909493;29;20380;-64
2022/10/15 02:42:24;;;;;;;0.20;0.17;;;;;;;15.10;100.00;98050.44;4904858;29;20238;-64
2022/10/15 02:44:50;;;;;;;0.17;0.17;;;;;;;15.11;100.00;98054.69;4907939;29;20286;-64
2022/10/15 02:47:17;;;;;;;1.17;0.30;;;;;;;15.08;100.00;98057.72;4906294;29;20246;-64
2022/10/15 02:49:45;;;;;;;0.20;0.20;;;;;;;15.07;100.00;98044.78;4907437;29;20242;-64
2022/10/15 02:52:12;;;;;;;1.30;0.40;;;;;;;15.08;100.00;98070.84;4903504;29;20234;-64
2022/10/15 02:54:40;;;;;;;2.20;0.20;;;;;;;15.05;100.00;98069.44;4907197;29;20321;-64
2022/10/15 02:57:07;;;;;;;1.50;0.30;;;;;;;15.04;100.00;98064.38;4904978;29;20231;-64
2022/10/15 02:59:33;;;;;;;1.93;0.30;;;;;;;15.04;100.00;98065.19;4907131;29;20238;-64
2022/10/15 03:02:00;;;;;;;1.50;0.20;;;;;;;15.07;100.00;98065.81;5112621;23;20602;-56
2022/10/15 03:04:28;;;;;;;1.73;0.30;;;;;;;15.11;100.00;98072.31;4907995;29;20234;-56
2022/10/15 03:06:56;;;;;;;2.63;0.30;;;;;;;15.14;100.00;98046.44;4919186;29;20903;-57
2022/10/15 03:09:23;;;;;;;2.30;0.47;;;;;;;15.15;100.00;98066.44;4918208;29;20241;-54
2022/10/15 03:11:49;;;;;;;2.43;0.30;;;;;;;15.20;100.00;98063.25;4900331;29;20793;-57
2022/10/15 03:14:17;;;;;;;0.50;0.20;;;;;;;15.19;100.00;98061.63;4892609;29;20237;-55
2022/10/15 03:16:43;;;;;;;0.90;0.33;;;;;;;15.17;100.00;98051.28;4917711;29;20236;-57
2022/10/15 03:19:11;;;;;;;0.67;0.43;;;;;;;15.14;100.00;98046.44;4904110;29;20799;-55
2022/10/15 03:21:38;;;;;;;0.97;0.40;;;;;;;15.17;100.00;98059.19;4898485;29;20815;-57
2022/10/15 03:24:11;;;;;;;0.73;0.33;;;;;;;15.23;100.00;98059.41;4904855;29;20243;-57
2022/10/15 03:26:38;;;;;;;0.80;0.50;;;;;;;15.23;100.00;98049.72;4892376;29;20235;-58
2022/10/15 03:29:05;;;;;;;0.47;0.40;;;;;;;15.24;100.00;98042.63;4894514;29;20780;-55
2022/10/15 03:31:37;;;;;;;1.43;0.50;;;;;;;15.31;100.00;98043.47;4897130;29;20240;-57
2022/10/15 03:34:05;;;;;;;0.40;0.30;;;;;;;15.31;100.00;98054.00;4905161;29;20277;-55
2022/10/15 03:36:32;;;;;;;1.27;0.50;;;;;;;15.29;100.00;98064.72;4888776;29;20342;-57
2022/10/15 03:38:59;;;;;;;4.00;0.60;;;;;;;15.29;100.00;98056.00;4890450;29;20240;-56
2022/10/15 03:41:27;;;;;;;1.10;0.30;;;;;;;15.30;100.00;98055.00;4893012;29;22951;-58
2022/10/15 03:43:55;;;;;;;0.50;0.43;;;;;;;15.29;100.00;98050.75;4890957;29;20228;-58
2022/10/15 03:46:21;;;;;;;0.67;0.30;;;;;;;15.31;100.00;98069.75;4890638;29;20232;-57
2022/10/15 03:48:50;;;;;;;1.43;0.40;;;;;;;15.27;100.00;98066.72;4894485;29;20325;-57
2022/10/15 03:51:17;;;;;;;0.37;0.30;;;;;;;15.32;100.00;98071.38;4886069;29;20267;-56
2022/10/15 03:53:45;;;;;;;3.03;0.40;;;;;;;15.34;100.00;98070.22;4889070;29;20717;-56
2022/10/15 03:56:12;;;;;;;0.30;0.30;;;;;;;15.30;100.00;98058.44;4906612;29;20252;-56
2022/10/15 03:58:41;;;;;;;0.93;0.40;;;;;;;15.25;100.00;98078.44;4908649;29;20308;-57
2022/10/15 04:01:14;;;;;;;1.13;0.30;;;;;;;15.19;100.00;98072.94;4893736;29;20246;-57
2022/10/15 04:03:42;;;;;;;2.40;0.30;;;;;;;15.22;100.00;98077.03;4904495;29;20235;-57
2022/10/15 04:06:09;;;;;;;0.50;0.40;;;;;;;15.20;100.00;98073.78;4898964;29;20665;-57
2022/10/15 04:08:37;;;;;;;2.23;0.50;;;;;;;15.18;100.00;98079.22;4898022;29;20283;-57
2022/10/15 04:11:18;;;;;;;1.33;0.30;;;;;;;15.20;100.00;98086.91;4900562;29;20231;-57
2022/10/15 04:13:49;;;;;;;3.53;0.60;;;;;;;15.20;100.00;98097.44;4900953;29;20241;-58
2022/10/15 04:16:17;;;;;;;1.40;0.60;;;;;;;15.23;100.00;98088.34;4900369;29;20259;-58
2022/10/15 04:18:44;;;;;;;0.77;0.33;;;;;;;15.17;100.00;98080.22;4917592;29;20227;-58
2022/10/15 04:21:11;;;;;;;1.83;0.40;;;;;;;15.18;100.00;98094.19;4902021;29;20746;-57
2022/10/15 04:23:40;;;;;;;1.60;0.50;;;;;;;15.13;100.00;98088.69;4903601;29;20238;-58
2022/10/15 04:26:29;;;;;;;1.00;0.37;;;;;;;15.11;100.00;98082.81;4912550;29;20313;-57
2022/10/15 04:29:01;;;;;;;1.07;0.57;;;;;;;15.09;100.00;98090.09;4897511;29;20599;-58
2022/10/15 04:31:32;;;;;;;1.70;0.47;;;;;;;15.06;100.00;98093.91;4899747;29;20234;-57
2022/10/15 04:34:00;;;;;;;2.57;0.40;;;;;;;15.04;100.00;98102.00;4901617;29;20242;-57
2022/10/15 04:36:27;;;;;;;0.60;0.40;;;;;;;14.99;100.00;98108.81;4894532;29;20242;-56
2022/10/15 04:39:06;;;;;;;1.23;0.60;;;;;;;14.94;100.00;98116.44;4905720;29;20264;-56
2022/10/15 04:41:40;;;;;;;3.90;0.60;;;;;;;14.94;100.00;98119.91;4899400;29;20803;-57
2022/10/15 04:44:11;;;;;;;1.43;0.50;;;;;;;14.89;100.00;98119.66;4898610;29;20232;-61
2022/10/15 04:46:38;;;;;;;2.20;0.50;;;;;;;14.87;100.00;98119.03;4899804;29;20240;-57
2022/10/15 04:49:24;;;;;;;2.10;0.50;;;;;;;14.93;100.00;98112.19;4916260;29;20240;-56
2022/10/15 04:51:51;;;;;;;2.17;0.50;;;;;;;14.95;100.00;98110.19;4899805;29;20275;-56
2022/10/15 04:54:27;;;;;;;0.93;0.43;;;;;;;14.96;100.00;98119.69;4891731;29;20252;-57
2022/10/15 04:56:57;;;;;;;0.40;0.40;;;;;;;14.93;100.00;98117.47;4898634;29;21069;-58
2022/10/15 04:59:26;;;;;;;1.43;0.40;;;;;;;14.95;100.00;98112.81;4907827;29;20239;-55
2022/10/15 05:02:27;;;;;;;1.47;0.40;;;;;;;14.95;100.00;98121.53;4854165;29;20254;-55
2022/10/15 05:05:08;;;;;;;0.87;0.50;;;;;;;14.94;100.00;98119.91;4907369;29;20232;-57
2022/10/15 05:07:44;;;;;;;0.60;0.60;;;;;;;14.96;100.00;98125.78;4899371;29;20236;-57
2022/10/15 05:10:11;;;;;;;2.33;0.63;;;;;;;14.98;100.00;98136.91;4895896;29;20252;-58
2022/10/15 05:12:37;;;;;;;1.53;0.40;;;;;;;14.94;100.00;98140.09;4899142;29;20354;-57
2022/10/15 05:15:08;;;;;;;3.73;0.80;;;;;;;14.87;100.00;98135.59;4888277;29;20638;-57
2022/10/15 05:17:36;;;;;;;0.93;0.60;;;;;;;14.85;100.00;98137.63;4909461;29;20240;-57
2022/10/15 05:20:03;;;;;;;2.60;0.70;;;;;;;14.85;100.00;98144.69;4888269;29;20233;-58
2022/10/15 05:22:30;;;;;;;0.40;0.40;;;;;;;14.81;100.00;98154.78;4895314;29;20250;-58
2022/10/15 05:24:59;;;;;;;1.27;0.73;;;;;;;14.80;100.00;98145.28;4903650;29;20235;-58
2022/10/15 05:27:34;;;;;;;2.53;0.50;;;;;;;14.81;100.00;98151.34;4884720;29;20248;-58
2022/10/15 05:30:04;;;;;;;4.27;2.23;;;;;;;14.85;100.00;98153.38;4900146;29;20243;-58
2022/10/15 05:32:38;;;;;;;4.57;2.13;;;;;;;14.83;100.00;98155.41;4899284;29;20307;-57
2022/10/15 05:35:10;;;;;;;1.07;0.60;;;;;;;14.79;100.00;98155.97;4899006;29;20236;-57
2022/10/15 05:37:51;;;;;;;2.17;0.50;;;;;;;14.80;100.00;98149.72;4900101;29;20274;-57
2022/10/15 05:40:18;;;;;;;2.37;0.90;;;;;;;14.78;100.00;98154.34;4894830;29;20250;-57
2022/10/15 05:42:53;;;;;;;1.23;0.70;;;;;;;14.73;100.00;98155.72;4890746;29;20724;-58
2022/10/15 05:45:20;;;;;;;1.50;0.90;;;;;;;14.74;100.00;98159.97;4908407;29;20237;-57
2022/10/15 05:47:48;;;;;;;0.40;0.40;;;;;;;14.76;100.00;98151.91;4898293;29;20234;-57
2022/10/15 05:50:17;;;;;;;2.40;0.80;;;;;;;14.77;100.00;98156.16;4889071;29;20683;-56
2022/10/15 05:52:47;;;;;;;1.47;0.90;;;;;;;14.76;100.00;98151.91;4896108;29;20248;-58
2022/10/15 05:55:20;;;;;;;2.20;1.80;;;;;;;14.75;100.00;98155.53;4897152;29;20248;-54
2022/10/15 05:57:46;;;;;;;7.43;2.03;;;;;;;14.73;100.00;98155.72;4911507;29;20237;-57
2022/10/15 06:00:14;;;;;;;1.93;0.50;;;;;;;14.81;100.00;98156.59;4909937;29;20693;-57
2022/10/15 06:02:41;;;;;;;1.23;0.40;;;;;;;14.87;100.00;98158.47;4918096;29;20253;-56
2022/10/15 06:05:09;;;;;;;1.53;0.60;;;;;;;14.86;100.00;98144.50;4905502;29;20789;-55
2022/10/15 06:07:35;;;;;;;1.77;0.50;;;;;;;14.90;100.00;98155.44;4917013;29;20250;-56
2022/10/15 06:10:05;;;;;;;1.70;0.57;;;;;;;14.91;100.00;98157.06;4912181;29;20638;-58
2022/10/15 06:12:33;;;;;;;2.27;0.80;;;;;;;14.94;100.00;98167.22;4913007;29;20293;-57
2022/10/15 06:15:00;;;;;;;2.30;0.57;;;;;;;14.99;100.00;98167.44;4918254;29;20546;-57
2022/10/15 06:17:26;;;;;;;2.60;0.50;;;;;;;15.05;100.00;98166.69;4892834;29;20566;-56
2022/10/15 06:19:53;;;;;;;0.40;0.40;;;;;;;15.14;100.00;98166.53;4914205;29;20240;-57
2022/10/15 06:22:21;;;;;;;2.03;0.60;;;;;;;15.11;100.00;98164.31;4910705;29;20251;-57
2022/10/15 06:24:47;;;;;;;2.80;0.43;;;;;;;15.18;100.00;98167.78;4914266;29;20237;-57
2022/10/15 06:27:14;;;;;;;3.50;0.57;;;;;;;15.20;100.00;98176.31;4914519;29;20250;-56
2022/10/15 06:29:40;;;;;;;1.97;0.57;;;;;;;15.26;100.00;98180.78;4912168;29;20727;-56
2022/10/15 06:32:09;;;;;;;3.03;0.40;;;;;;;15.19;100.00;98186.00;4904607;29;20248;-57
2022/10/15 06:34:39;;;;;;;3.20;0.60;;;;;;;15.16;100.00;98191.63;4905961;29;20243;-53
2022/10/15 06:37:05;;;;;;;1.43;0.63;;;;;;;15.13;100.00;98205.16;4916819;29;20242;-56
2022/10/15 06:39:33;;;;;;;1.23;0.33;;;;;;;15.03;100.00;98197.59;4913164;29;21044;-56
2022/10/15 06:42:00;;;;;;;1.10;0.50;;;;;;;14.97;100.00;98195.75;4920408;29;20273;-56
2022/10/15 06:44:37;;;;;;;0.87;0.50;;;;;;;15.01;100.00;98199.63;4916163;29;20290;-57
2022/10/15 06:47:04;;;;;;;0.57;0.30;;;;;;;15.01;100.00;98197.00;4913281;29;20243;-56
2022/10/15 06:49:31;;;;;;;7.70;1.00;;;;;;;15.04;100.00;98207.13;4912584;29;20233;-57
2022/10/15 06:51:59;;;;;;;14.50;1.37;;;;;;;15.13;100.00;98199.91;4911757;29;20257;-57
2022/10/15 06:54:26;;;;;;;1.50;0.77;;;;;;;15.12;100.00;98200.09;4913472;29;20303;-58
2022/10/15 06:56:54;;;;;;;1.03;0.40;;;;;;;15.15;100.00;98207.59;4908991;29;20228;-58
2022/10/15 06:59:21;;;;;;;0.37;0.33;;;;;;;15.12;100.00;98211.41;4903422;29;20306;-56
2022/10/15 07:01:47;;;;;;;3.10;0.40;;;;;;;15.09;100.00;98221.50;4905292;29;20245;-56
2022/10/15 07:04:14;;;;;;;1.77;0.40;;;;;;;15.15;100.00;98218.13;4910522;29;20792;-57
2022/10/15 07:06:41;;;;;;;0.80;0.30;;;;;;;15.13;100.00;98210.41;4912293;29;20303;-58
2022/10/15 07:09:07;;;;;;;1.10;0.33;;;;;;;15.18;100.00;98215.13;4917455;29;20337;-57
2022/10/15 07:11:34;;;;;;;0.67;0.37;;;;;;;15.10;100.00;98216.06;4908535;29;20243;-57
2022/10/15 07:14:02;;;;;;;1.50;0.40;;;;;;;15.05;100.00;98226.31;4917071;29;20900;-57
2022/10/15 07:16:28;;;;;;;0.50;0.20;;;;;;;14.94;100.00;98214.50;4913605;29;20321;-58
2022/10/15 07:18:55;;;;;;;0.77;0.30;;;;;;;15.10;100.00;98215.25;4914755;29;20242;-57
2022/10/15 07:21:21;;;;;;;1.30;0.47;;;;;;;15.11;100.00;98211.63;4909379;29;20691;-58
2022/10/15 07:23:48;;;;;;;0.63;0.37;;;;;;;15.11;100.00;98209.78;4915196;29;20233;-58
2022/10/15 07:26:15;;;;;;;3.13;0.30;;;;;;;15.15;100.00;98207.59;4912360;29;20285;-57
2022/10/15 07:28:41;;;;;;;0.20;0.13;;;;;;;15.19;100.00;98207.03;4891656;29;20238;-57
2022/10/15 07:31:09;;;;;;;0.37;0.20;;;;;;;15.28;100.00;98209.50;4918137;29;20313;-58
2022/10/15 07:33:36;;;;;;;1.03;0.20;;;;;;;15.44;100.00;98222.38;4917697;29;20286;-58
2022/10/15 07:36:04;;;;;;;0.33;0.20;;;;;;;15.54;100.00;98215.97;4915192;29;20666;-55
2022/10/15 07:38:31;;;;;;;1.70;0.27;;;;;;;15.53;100.00;98216.97;4911005;29;20927;-58
2022/10/15 07:40:58;;;;;;;0.20;0.20;;;;;;;15.63;100.00;98218.22;4886216;29;20244;-57
2022/10/15 07:43:26;;;;;;;5.10;0.20;;;;;;;15.70;100.00;98228.81;4912057;29;20236;-58
2022/10/15 07:45:53;;;;;;;0.47;0.27;;;;;;;15.68;100.00;98233.44;4906683;29;20231;-57
2022/10/15 07:48:21;;;;;;;0.20;0.20;;;;;;;15.72;100.00;98239.94;4897320;29;20243;-56
2022/10/15 07:50:53;;;;;;;3.47;0.20;;;;;;;15.84;100.00;98242.03;4915463;29;20725;-57
2022/10/15 07:53:20;;;;;;;0.10;0.10;;;;;;;15.76;100.00;98232.47;4905536;29;20241;-58
2022/10/15 07:55:49;;;;;;;0.17;0.17;;;;;;;15.78;100.00;98233.09;4913354;29;20234;-57
2022/10/15 07:58:16;;;;;;;2.30;0.10;;;;;;;15.79;100.00;98238.16;4908852;29;20242;-57
2022/10/15 08:00:43;;;;;;;0.20;0.10;;;;;;;15.79;100.00;98242.59;4909513;29;21137;-56
2022/10/15 08:03:10;;;;;;;0.60;0.30;;;;;;;15.74;100.00;98248.47;4906810;29;20238;-56
2022/10/15 08:05:37;;;;;;;0.30;0.30;;;;;;;15.60;100.00;98250.19;4910932;29;20717;-55
2022/10/15 08:08:04;;;;;;;2.57;0.33;;;;;;;15.65;100.00;98247.00;4912292;29;20247;-57
2022/10/15 08:10:31;;;;;;;1.97;0.40;;;;;;;15.80;100.00;98254.75;4909556;29;20774;-60
2022/10/15 08:12:57;;;;;;;0.33;0.20;;;;;;;15.91;100.00;98237.63;4906965;29;20314;-55
2022/10/15 08:15:24;;;;;;;0.10;0.10;;;;;;;15.88;100.00;98230.94;4900001;29;20231;-57
2022/10/15 08:17:51;;;;;;;1.27;0.40;;;;;;;16.01;100.00;98242.56;4908160;29;20231;-59
2022/10/15 08:20:18;;;;;;;1.00;0.30;;;;;;;15.96;100.00;98243.13;4912722;29;20223;-56
2022/10/15 08:22:46;;;;;;;0.20;0.20;;;;;;;15.92;100.00;98252.41;4893770;29;20603;-56
2022/10/15 08:25:12;;;;;;;2.20;0.80;;;;;;;15.94;100.00;98247.75;4912448;29;20224;-53
2022/10/15 08:27:39;;;;;;;2.33;0.30;;;;;;;15.88;100.00;98269.63;4906025;29;20295;-55
2022/10/15 08:30:06;;;;;;;2.23;0.70;;;;;;;15.87;100.00;98260.09;4909373;29;20239;-55
2022/10/15 08:32:33;;;;;;;0.83;0.20;;;;;;;15.78;100.00;98262.03;4911681;29;20235;-57
2022/10/15 08:35:00;;;;;;;0.33;0.33;;;;;;;15.81;100.00;98263.47;4915583;29;20233;-54
2022/10/15 08:37:31;;;;;;;2.07;0.60;;;;;;;15.78;100.00;98269.94;4909431;29;20250;-54
2022/10/15 08:39:58;;;;;;;1.10;0.70;;;;;;;15.75;100.00;98250.09;4910082;29;20236;-54
2022/10/15 08:42:31;;;;;;;1.70;1.13;;;;;;;15.83;100.00;98257.00;4900026;29;20369;-55
2022/10/15 08:45:00;;;;;;;1.27;0.43;;;;;;;15.85;100.00;98252.34;4912001;29;20302;-56
2022/10/15 08:47:34;;;;;;;0.77;0.43;;;;;;;15.91;100.00;98269.22;4906083;29;20311;-56
2022/10/15 08:50:04;;;;;;;1.03;0.40;;;;;;;16.02;100.00;98263.41;4923498;29;20232;-56
2022/10/15 08:52:41;;;;;;;0.97;0.87;;;;;;;16.14;100.00;98265.47;4908553;29;20263;-55
2022/10/15 08:55:12;;;;;;;6.90;6.30;;;;;;;16.17;100.00;98263.28;4915633;29;20245;-56
2022/10/15 08:57:45;;;;;;;3.17;1.10;;;;;;;16.15;100.00;98264.47;4909725;29;20233;-57
2022/10/15 09:00:17;;;;;;;0.20;0.20;;;;;;;16.11;100.00;98268.50;4912468;29;20294;-55
2022/10/15 09:02:52;;;;;;;1.07;0.50;;;;;;;16.12;100.00;98275.41;4915179;29;20339;-57
2022/10/15 09:05:28;;;;;;;0.30;0.30;;;;;;;16.16;100.00;98281.91;4912316;29;20231;-56
2022/10/15 09:08:04;;;;;;;1.47;0.30;;;;;;;16.14;100.00;98281.28;4919572;29;20235;-56
2022/10/15 09:10:41;;;;;;;4.63;0.60;;;;;;;16.07;100.00;98282.06;4916234;29;20712;-56
2022/10/15 09:13:12;;;;;;;0.30;0.30;;;;;;;16.03;100.00;98288.72;4917753;29;20231;-57
2022/10/15 09:15:47;;;;;;;2.10;1.87;;;;;;;16.02;100.00;98281.81;4930323;23;20261;-63
2022/10/15 09:18:20;;;;;;;2.60;1.17;;;;;;;15.98;100.00;98270.06;4910488;29;20326;-63
2022/10/15 09:20:48;;;;;;;2.17;0.60;;;;;;;16.05;100.00;98268.28;4911606;29;20227;-63
2022/10/15 09:23:18;;;;;;;0.50;0.50;;;;;;;16.16;100.00;98287.16;4908904;29;20284;-63
2022/10/15 09:25:53;;;;;;;2.93;0.50;;;;;;;16.18;100.00;98266.72;4911875;29;20280;-63
2022/10/15 09:28:24;;;;;;;1.67;0.43;;;;;;;16.44;100.00;98288.91;4907997;29;20243;-63
2022/10/15 09:30:55;;;;;;;1.37;0.60;;;;;;;16.47;99.19;98281.41;4914682;29;20236;-63
2022/10/15 09:33:32;;;;;;;1.13;0.40;;;;;;;16.89;97.29;98273.44;4909237;29;20621;-63
2022/10/15 09:36:10;;;;;;;4.17;0.90;;;;;;;16.75;97.98;98287.59;4912488;29;20226;-63
2022/10/15 09:38:47;;;;;;;1.10;0.60;;;;;;;16.87;95.39;98283.34;4909462;29;20239;-63
2022/10/15 09:41:25;;;;;;;2.70;1.30;;;;;;;16.93;95.00;98292.28;4908927;29;20258;-63
2022/10/15 09:43:55;;;;;;;3.40;0.73;;;;;;;17.00;94.02;98287.03;4911424;29;20293;-63
2022/10/15 09:46:22;;;;;;;1.07;0.70;;;;;;;17.17;93.22;98293.53;4909071;29;20644;-64
2022/10/15 09:48:55;;;;;;;4.00;0.93;;;;;;;17.42;92.13;98292.94;4909903;29;20707;-64
2022/10/15 09:51:28;;;;;;;5.43;3.50;;;;;;;17.41;92.77;98293.97;4909053;29;20305;-64
2022/10/15 09:54:01;;;;;;;3.73;0.80;;;;;;;17.55;94.41;98303.50;4909950;29;20236;-63
2022/10/15 09:56:35;;;;;;;2.67;0.73;;;;;;;17.67;90.11;98298.41;4909390;29;20240;-64
2022/10/15 09:59:03;;;;;;;3.23;0.70;;;;;;;17.59;88.97;98305.72;4911072;29;20241;-64
2022/10/15 10:01:32;;;;;;;5.57;0.70;;;;;;;17.54;88.95;98291.31;4907431;29;20587;-64
2022/10/15 10:04:12;;;;;;;0.90;0.60;;;;;;;16.99;91.17;98290.69;4910454;29;20238;-64
2022/10/15 10:06:45;;;;;;;1.70;0.70;;;;;;;17.19;90.73;98290.72;4907429;29;20230;-63
2022/10/15 10:09:18;;;;;;;2.07;0.70;;;;;;;17.13;90.08;98289.69;4905814;29;20778;-64
2022/10/15 10:11:50;;;;;;;3.53;0.90;;;;;;;16.85;91.53;98295.94;4910424;29;20315;-63
2022/10/15 10:14:25;;;;;;;5.47;1.10;;;;;;;16.95;92.53;98291.09;4910252;29;20233;-64
2022/10/15 10:17:07;;;;;;;5.93;0.80;;;;;;;17.04;91.78;98309.34;4911517;29;20245;-64
2022/10/15 10:19:34;;;;;;;1.57;0.80;;;;;;;17.03;91.29;98319.09;4907752;29;20707;-64
2022/10/15 10:22:10;;;;;;;3.10;0.60;;;;;;;16.92;93.05;98312.56;4911316;29;20240;-65
2022/10/15 10:24:37;;;;;;;2.83;0.80;;;;;;;16.94;92.66;98315.00;4907888;29;20239;-64
2022/10/15 10:27:19;;;;;;;2.00;0.70;;;;;;;17.00;91.50;98310.75;4910370;29;20322;-64
2022/10/15 10:29:52;;;;;;;2.50;0.70;;;;;;;17.07;92.88;98312.41;4909701;29;20323;-64
2022/10/15 10:32:22;;;;;;;1.80;0.60;;;;;;;16.95;90.74;98306.91;4907691;29;20317;-64
2022/10/15 10:34:49;;;;;;;2.50;0.50;;;;;;;16.86;91.13;98300.19;4910270;29;20228;-61
2022/10/15 10:37:15;;;;;;;1.83;0.60;;;;;;;16.94;89.32;98307.91;4909317;29;20279;-64
2022/10/15 10:39:43;;;;;;;3.27;0.60;;;;;;;16.97;91.11;98296.97;4911869;29;20315;-64
2022/10/15 10:42:26;;;;;;;2.50;1.00;;;;;;;16.98;90.89;98308.34;4907715;29;20296;-65
2022/10/15 10:44:54;;;;;;;1.67;0.60;;;;;;;17.15;90.56;98306.13;4909486;29;20232;-64
2022/10/15 10:47:22;;;;;;;2.83;0.63;;;;;;;17.10;88.53;98309.38;4908279;29;20291;-64
2022/10/15 10:49:55;;;;;;;1.27;0.60;;;;;;;17.21;87.17;98302.69;4910592;29;20231;-64
2022/10/15 10:52:26;;;;;;;2.57;0.80;;;;;;;17.02;87.76;98316.66;4907221;29;20727;-64
2022/10/15 10:54:59;;;;;;;1.37;0.60;;;;;;;17.20;88.89;98311.59;4910675;29;20281;-64
2022/10/15 10:57:39;;;;;;;1.60;0.60;;;;;;;17.25;90.15;98316.28;4909070;29;20232;-64
2022/10/15 11:00:07;;;;;;;4.07;0.70;;;;;;;17.24;89.11;98312.84;4910174;29;20331;-64
2022/10/15 11:02:39;;;;;;;4.63;0.67;;;;;;;17.22;90.31;98306.16;4907865;29;21285;-64
2022/10/15 11:05:06;;;;;;;1.00;0.40;;;;;;;17.23;88.25;98302.50;4902298;29;20842;-64
2022/10/15 11:07:40;;;;;;;1.20;0.50;;;;;;;16.97;89.24;98302.25;4898027;29;20365;-64
2022/10/15 11:10:16;;;;;;;1.73;0.47;;;;;;;17.15;88.13;98300.84;4904488;29;20281;-64
2022/10/15 11:12:58;;;;;;;2.13;0.60;;;;;;;17.20;86.51;98297.63;4900645;29;20243;-64
2022/10/15 11:15:34;;;;;;;1.20;0.50;;;;;;;17.10;87.70;98292.72;4901627;29;20289;-64
2022/10/15 11:18:25;;;;;;;1.50;0.53;;;;;;;17.09;86.20;98299.84;4903967;29;20775;-64
2022/10/15 11:20:58;;;;;;;1.90;0.57;;;;;;;17.30;88.40;98305.13;4902657;29;20241;-64
2022/10/15 11:23:42;;;;;;;2.57;0.70;;;;;;;17.23;90.37;98303.28;4884308;29;20657;-64
2022/10/15 11:26:23;;;;;;;1.47;0.70;;;;;;;17.30;92.85;98308.59;4899952;29;20238;-65
2022/10/15 11:29:11;;;;;;;2.17;0.60;;;;;;;17.27;91.09;98312.44;4903950;29;20253;-62
2022/10/15 11:31:47;;;;;;;2.37;0.80;;;;;;;17.20;91.50;98308.97;4901655;29;20744;-63
2022/10/15 11:34:29;;;;;;;1.33;0.60;;;;;;;17.38;90.88;98311.03;4888460;29;20681;-58
2022/10/15 11:37:07;;;;;;;2.23;0.40;;;;;;;17.35;91.29;98310.59;4903542;29;20585;-63
2022/10/15 11:39:48;;;;;;;3.50;0.80;;;;;;;16.94;94.32;98320.28;4892520;29;20237;-62
2022/10/15 11:42:19;;;;;;;2.03;0.60;;;;;;;16.92;95.44;98301.19;4900981;29;20249;-63